Time;durP1;ratioP1;P1;durP2;ratioP2;P2;SDS_P1;SDS_P2;PMS_P1;PMS_P2;Temp;Humidity;BMP_temperature;BMP_pressure;BME280_temperature;BME280_humidity;BME280_pressure;Samples;Min_cycle;Max_cycle;Signal;HPM_P1;HPM_P2
2022/08/10 00:01:42;;;;;;;6.17;5.57;;;17.30;99.90;;;;;;5032158;28;20200;-77
2022/08/10 00:04:09;;;;;;;6.40;5.70;;;17.20;99.90;;;;;;5035587;28;20201;-77
2022/08/10 00:06:36;;;;;;;7.80;7.10;;;17.20;99.90;;;;;;5046151;28;20252;-78
2022/08/10 00:09:03;;;;;;;6.23;5.70;;;17.20;99.90;;;;;;5043686;28;20291;-78
2022/08/10 00:11:30;;;;;;;7.00;6.40;;;17.20;99.90;;;;;;5045419;28;20258;-77
2022/08/10 00:13:56;;;;;;;6.87;6.20;;;17.10;99.90;;;;;;5030404;28;20278;-77
2022/08/10 00:16:23;;;;;;;6.60;6.00;;;17.10;99.90;;;;;;5031429;28;20616;-78
2022/08/10 00:18:51;;;;;;;6.87;6.17;;;17.10;99.90;;;;;;5025989;28;20246;-78
2022/08/10 00:21:18;;;;;;;6.83;6.23;;;17.20;99.90;;;;;;5023816;28;20269;-78
2022/08/10 00:23:45;;;;;;;6.30;5.70;;;17.10;99.90;;;;;;5031681;28;20243;-78
2022/08/10 00:26:12;;;;;;;6.50;5.90;;;17.10;99.90;;;;;;5030130;28;20195;-77
2022/08/10 00:28:39;;;;;;;6.97;6.37;;;17.00;99.90;;;;;;5046245;28;20227;-77
2022/08/10 00:31:06;;;;;;;6.67;6.03;;;17.00;99.90;;;;;;5046271;28;20745;-78
2022/08/10 00:33:33;;;;;;;6.20;5.60;;;17.00;99.90;;;;;;5031358;28;20340;-77
2022/08/10 00:36:01;;;;;;;6.00;5.50;;;17.00;99.90;;;;;;5043764;28;20626;-78
2022/08/10 00:38:28;;;;;;;6.03;5.50;;;17.00;99.90;;;;;;5043730;28;20203;-78
2022/08/10 00:40:54;;;;;;;5.47;5.07;;;17.00;99.90;;;;;;5045842;28;20246;-78
2022/08/10 00:43:21;;;;;;;5.83;5.33;;;17.00;99.90;;;;;;5031721;28;20256;-77
2022/08/10 00:45:48;;;;;;;5.83;5.33;;;16.90;99.90;;;;;;5029083;28;20221;-77
2022/08/10 00:48:15;;;;;;;6.10;5.60;;;17.00;99.90;;;;;;5027984;28;20537;-78
2022/08/10 00:50:42;;;;;;;6.13;5.60;;;17.00;99.90;;;;;;5027772;28;20234;-78
2022/08/10 00:53:10;;;;;;;5.53;5.13;;;17.00;99.90;;;;;;5044084;28;20203;-78
2022/08/10 00:55:38;;;;;;;5.70;5.23;;;17.00;99.90;;;;;;5045383;28;20616;-78
2022/08/10 00:58:05;;;;;;;5.60;5.20;;;17.00;99.90;;;;;;5045906;28;20262;-78
2022/08/10 01:00:32;;;;;;;5.20;4.80;;;17.00;99.90;;;;;;5046859;28;20193;-78
2022/08/10 01:02:59;;;;;;;5.30;4.90;;;17.00;99.90;;;;;;5046195;28;20235;-78
2022/08/10 01:05:26;;;;;;;5.07;4.77;;;17.00;99.90;;;;;;5031059;28;20195;-78
2022/08/10 01:08:24;;;;;;;5.10;4.70;;;17.00;99.90;;;;;;5042865;28;20621;-78
2022/08/10 01:10:58;;;;;;;4.90;4.60;;;17.00;99.90;;;;;;5042153;28;20702;-78
2022/08/10 01:13:33;;;;;;;6.00;5.50;;;16.90;99.90;;;;;;5028871;28;20541;-78
2022/08/10 01:16:07;;;;;;;6.83;5.80;;;16.90;99.90;;;;;;5027003;28;20195;-77
2022/08/10 01:18:42;;;;;;;6.80;6.20;;;16.90;99.90;;;;;;5050640;28;20264;-78
2022/08/10 01:21:39;;;;;;;6.20;5.73;;;16.90;99.90;;;;;;5050311;28;20574;-78
2022/08/10 01:24:28;;;;;;;6.53;5.93;;;16.80;99.90;;;;;;5047411;28;20200;-78
2022/08/10 01:27:15;;;;;;;5.60;5.20;;;16.80;99.90;;;;;;5049220;28;20199;-78
2022/08/10 01:30:04;;;;;;;5.90;5.40;;;16.70;99.90;;;;;;5022388;28;20349;-78
2022/08/10 01:32:38;;;;;;;6.10;5.60;;;16.70;99.90;;;;;;5023432;28;20761;-78
2022/08/10 01:35:12;;;;;;;5.90;5.40;;;16.70;99.90;;;;;;5034023;28;20623;-78
2022/08/10 01:37:46;;;;;;;5.70;5.30;;;16.60;99.90;;;;;;5046404;28;20614;-77
2022/08/10 01:40:17;;;;;;;7.53;6.87;;;16.60;99.90;;;;;;5047237;28;20560;-78
2022/08/10 01:42:46;;;;;;;5.77;5.37;;;16.60;99.90;;;;;;5034995;28;20205;-78
2022/08/10 01:45:17;;;;;;;5.90;5.50;;;16.60;99.90;;;;;;5030464;28;20205;-78
2022/08/10 01:50:37;;;;;;;5.70;5.30;;;16.50;99.90;;;;;;5021597;28;20200;-78
2022/08/10 01:53:09;;;;;;;6.07;5.57;;;16.50;99.90;;;;;;5049166;28;20672;-79
2022/08/10 01:55:38;;;;;;;5.57;5.17;;;16.40;99.90;;;;;;5033378;28;20198;-78
2022/08/10 01:58:07;;;;;;;5.83;5.37;;;16.40;99.90;;;;;;5030757;28;20197;-77
2022/08/10 02:00:38;;;;;;;6.20;5.60;;;16.40;99.90;;;;;;5047083;28;20251;-78
2022/08/10 02:03:07;;;;;;;6.10;5.60;;;16.40;99.90;;;;;;5032083;28;20202;-78
2022/08/10 02:05:36;;;;;;;5.87;5.40;;;16.40;99.90;;;;;;5033986;28;20203;-78
2022/08/10 02:08:05;;;;;;;6.13;5.70;;;16.30;99.90;;;;;;5028936;28;20211;-78
2022/08/10 02:10:33;;;;;;;5.97;5.47;;;16.30;99.90;;;;;;5025946;28;20596;-78
2022/08/10 02:13:01;;;;;;;5.83;5.43;;;16.20;99.90;;;;;;5047022;28;20627;-78
2022/08/10 02:15:32;;;;;;;6.10;5.60;;;16.20;99.90;;;;;;5022208;28;20257;-78
2022/08/10 02:18:04;;;;;;;6.00;5.50;;;16.20;99.90;;;;;;5048098;28;20297;-78
2022/08/10 02:20:34;;;;;;;5.70;5.30;;;16.10;99.90;;;;;;5031863;28;20263;-78
2022/08/10 02:23:05;;;;;;;5.97;5.57;;;16.10;99.90;;;;;;5049215;28;20253;-78
2022/08/10 02:25:33;;;;;;;6.00;5.50;;;16.10;99.90;;;;;;5048092;28;20202;-77
2022/08/10 02:28:01;;;;;;;6.27;5.77;;;16.10;99.90;;;;;;5045655;28;20199;-78
2022/08/10 02:30:30;;;;;;;6.17;5.63;;;16.10;99.90;;;;;;5046340;28;20298;-79
2022/08/10 02:32:58;;;;;;;6.30;5.70;;;16.00;99.90;;;;;;5032226;28;20642;-78
2022/08/10 02:35:27;;;;;;;6.17;5.67;;;16.00;99.90;;;;;;5037303;28;20246;-78
2022/08/10 02:38:03;;;;;;;5.77;5.37;;;16.00;99.90;;;;;;5046870;28;20201;-78
2022/08/10 02:40:34;;;;;;;5.90;5.50;;;16.00;99.90;;;;;;5033229;28;20246;-78
2022/08/10 02:43:08;;;;;;;6.60;6.10;;;16.00;99.90;;;;;;5049151;28;20211;-78
2022/08/10 02:45:42;;;;;;;6.00;5.60;;;16.00;99.90;;;;;;5033585;28;20207;-78
2022/08/10 02:48:13;;;;;;;7.57;5.67;;;16.00;99.90;;;;;;5030752;28;20195;-79
2022/08/10 02:50:43;;;;;;;6.40;6.00;;;15.90;99.90;;;;;;5048868;28;20646;-78
2022/08/10 02:53:17;;;;;;;6.70;5.77;;;15.90;99.90;;;;;;5030951;28;20258;-77
2022/08/10 02:55:57;;;;;;;6.30;5.80;;;15.80;99.90;;;;;;5051346;28;20205;-80
2022/08/10 02:58:29;;;;;;;6.30;5.80;;;15.80;99.90;;;;;;5025799;28;20199;-80
2022/08/10 03:00:59;;;;;;;6.43;6.03;;;15.70;99.90;;;;;;5043641;28;20278;-76
2022/08/10 03:03:31;;;;;;;6.23;5.83;;;15.70;99.90;;;;;;5031544;28;20609;-76
2022/08/10 03:06:03;;;;;;;6.17;5.77;;;15.60;99.90;;;;;;5032913;28;20679;-75
2022/08/10 03:08:34;;;;;;;6.23;5.80;;;15.60;99.90;;;;;;5031839;28;20643;-75
2022/08/10 03:11:04;;;;;;;6.03;5.63;;;15.50;99.90;;;;;;5032377;28;20221;-75
2022/08/10 03:13:32;;;;;;;7.40;6.80;;;15.50;99.90;;;;;;5018808;28;20206;-77
2022/08/10 03:16:01;;;;;;;6.53;6.03;;;15.40;99.90;;;;;;5018146;28;20196;-76
2022/08/10 03:18:30;;;;;;;6.60;6.10;;;15.40;99.90;;;;;;5023542;28;20762;-76
2022/08/10 03:21:00;;;;;;;6.37;5.97;;;15.30;99.90;;;;;;5031977;28;20278;-76
2022/08/10 03:23:28;;;;;;;6.30;5.90;;;15.30;99.90;;;;;;5031775;28;20195;-76
2022/08/10 03:25:57;;;;;;;6.30;5.90;;;15.30;99.90;;;;;;5029309;28;20197;-76
2022/08/10 03:28:26;;;;;;;6.07;5.67;;;15.30;99.90;;;;;;5047296;28;20192;-76
2022/08/10 03:30:54;;;;;;;5.63;5.23;;;15.30;99.90;;;;;;5024481;28;20214;-76
2022/08/10 03:33:22;;;;;;;6.00;5.60;;;15.40;99.90;;;;;;5037238;28;20202;-76
2022/08/10 03:35:49;;;;;;;5.73;5.33;;;15.30;99.90;;;;;;5032224;28;20277;-76
2022/08/10 03:38:17;;;;;;;5.97;5.57;;;15.30;99.90;;;;;;5029475;28;20206;-76
2022/08/10 03:40:47;;;;;;;6.10;5.60;;;15.30;99.90;;;;;;5029780;28;20232;-76
2022/08/10 03:43:18;;;;;;;5.70;5.30;;;15.30;99.90;;;;;;5047402;28;20303;-76
2022/08/10 03:45:48;;;;;;;6.17;5.57;;;15.20;99.90;;;;;;5047684;28;20196;-76
2022/08/10 03:48:18;;;;;;;6.67;6.17;;;15.20;99.90;;;;;;5029044;28;20198;-76
2022/08/10 03:50:46;;;;;;;7.00;6.40;;;15.10;99.90;;;;;;5029951;28;20213;-76
2022/08/10 03:53:14;;;;;;;6.50;6.00;;;15.10;99.90;;;;;;5045849;28;20655;-76
2022/08/10 03:55:43;;;;;;;6.20;5.80;;;15.00;99.90;;;;;;5047677;28;20199;-76
2022/08/10 03:58:10;;;;;;;6.67;6.17;;;15.00;99.90;;;;;;5032121;28;20203;-76
2022/08/10 04:00:37;;;;;;;6.63;6.13;;;15.00;99.90;;;;;;5031901;28;20216;-76
2022/08/10 04:03:05;;;;;;;6.50;6.10;;;15.00;99.90;;;;;;5047301;28;20224;-76
2022/08/10 04:05:32;;;;;;;6.83;6.33;;;15.00;99.90;;;;;;5043410;28;20669;-76
2022/08/10 04:08:00;;;;;;;6.33;5.93;;;14.90;99.90;;;;;;5029080;28;20201;-76
2022/08/10 04:10:28;;;;;;;7.00;6.50;;;14.90;99.90;;;;;;5045509;28;20206;-76
2022/08/10 04:12:56;;;;;;;6.97;6.57;;;14.90;99.90;;;;;;5030677;28;20189;-76
2022/08/10 04:15:24;;;;;;;6.63;6.17;;;14.90;99.90;;;;;;5047086;28;20276;-76
2022/08/10 04:17:51;;;;;;;6.63;6.23;;;15.00;99.90;;;;;;5047083;28;20207;-76
2022/08/10 04:20:20;;;;;;;6.60;6.10;;;15.00;99.90;;;;;;5031732;28;20616;-76
2022/08/10 04:22:50;;;;;;;6.87;6.27;;;15.10;99.90;;;;;;5026930;28;20223;-76
2022/08/10 04:25:19;;;;;;;6.63;6.23;;;15.10;99.90;;;;;;5027516;28;20206;-76
2022/08/10 04:27:47;;;;;;;6.90;6.40;;;15.10;99.90;;;;;;5030051;28;20201;-76
2022/08/10 04:30:15;;;;;;;7.10;6.60;;;15.10;99.90;;;;;;5031737;28;20205;-76
2022/08/10 04:32:44;;;;;;;7.00;6.53;;;15.10;99.90;;;;;;5038662;28;20708;-76
2022/08/10 04:35:13;;;;;;;6.63;6.23;;;15.20;99.90;;;;;;5046950;28;20648;-77
2022/08/10 04:37:41;;;;;;;6.90;6.50;;;15.10;99.90;;;;;;5047008;28;20197;-76
2022/08/10 04:40:09;;;;;;;6.77;6.30;;;15.20;99.90;;;;;;5030056;28;20218;-77
2022/08/10 04:42:36;;;;;;;6.90;6.40;;;15.20;99.90;;;;;;5030833;28;20219;-76
2022/08/10 04:45:10;;;;;;;6.80;6.30;;;15.10;99.90;;;;;;5046637;28;20215;-76
2022/08/10 04:47:38;;;;;;;6.53;6.07;;;15.20;99.90;;;;;;5027223;28;20212;-77
2022/08/10 04:50:06;;;;;;;6.97;6.47;;;15.20;99.90;;;;;;5047453;28;20198;-76
2022/08/10 04:52:33;;;;;;;6.40;6.00;;;15.30;99.90;;;;;;5032929;28;20277;-76
2022/08/10 04:55:00;;;;;;;6.70;6.30;;;15.20;99.90;;;;;;5035063;28;20683;-77
2022/08/10 04:57:28;;;;;;;6.63;6.13;;;15.30;99.90;;;;;;5050888;28;20199;-77
2022/08/10 04:59:55;;;;;;;6.40;6.00;;;15.40;99.90;;;;;;5033935;28;20192;-76
2022/08/10 05:02:22;;;;;;;6.40;6.00;;;15.50;99.90;;;;;;5049440;28;20220;-76
2022/08/10 05:04:50;;;;;;;6.60;6.10;;;15.60;99.90;;;;;;5033459;28;20202;-77
2022/08/10 05:07:17;;;;;;;6.57;6.07;;;15.60;99.90;;;;;;5034111;28;20196;-76
2022/08/10 05:09:45;;;;;;;6.50;6.10;;;15.70;99.90;;;;;;5034726;28;20206;-76
2022/08/10 05:12:12;;;;;;;6.23;5.83;;;15.80;99.90;;;;;;5027224;28;20217;-76
2022/08/10 05:14:39;;;;;;;6.30;5.90;;;15.90;99.90;;;;;;5046434;28;20205;-76
2022/08/10 05:17:05;;;;;;;6.30;5.90;;;16.10;99.90;;;;;;5032043;28;20195;-77
2022/08/10 05:19:32;;;;;;;6.03;5.63;;;16.30;99.90;;;;;;5034915;28;20207;-76
2022/08/10 05:22:01;;;;;;;6.50;6.10;;;16.50;99.90;;;;;;5032556;28;20214;-75
2022/08/10 05:24:27;;;;;;;7.03;6.30;;;16.70;99.90;;;;;;5033745;28;20573;-76
2022/08/10 05:26:54;;;;;;;6.17;5.70;;;16.80;99.90;;;;;;5036696;28;20731;-76
2022/08/10 05:29:21;;;;;;;3.40;3.10;;;16.90;99.90;;;;;;5034793;28;20199;-76
2022/08/10 05:31:48;;;;;;;3.13;2.73;;;17.20;99.90;;;;;;5031948;28;20215;-76
2022/08/10 05:34:16;;;;;;;5.97;5.57;;;17.50;99.90;;;;;;5033029;28;20192;-77
2022/08/10 05:36:45;;;;;;;6.00;5.70;;;17.70;99.90;;;;;;5034948;28;20196;-77
2022/08/10 05:39:15;;;;;;;6.27;5.87;;;17.80;99.90;;;;;;5034058;28;20199;-76
2022/08/10 05:41:41;;;;;;;6.33;5.93;;;17.90;99.90;;;;;;5050176;28;20234;-78
2022/08/10 05:44:09;;;;;;;6.80;6.30;;;18.00;99.90;;;;;;5046317;28;20662;-78
2022/08/10 05:46:36;;;;;;;3.17;2.87;;;18.20;99.90;;;;;;5045451;28;20203;-77
2022/08/10 05:49:02;;;;;;;6.90;6.40;;;18.40;99.90;;;;;;5047111;28;20204;-77
2022/08/10 05:51:30;;;;;;;2.70;2.50;;;18.80;99.90;;;;;;5047844;28;20221;-77
2022/08/10 05:53:57;;;;;;;3.27;2.97;;;19.40;99.90;;;;;;5033813;28;20185;-77
2022/08/10 05:56:25;;;;;;;6.50;5.90;;;19.60;99.90;;;;;;5034235;28;20382;-77
2022/08/10 05:58:53;;;;;;;6.27;5.87;;;19.60;99.90;;;;;;5033338;28;20193;-77
2022/08/10 06:01:23;;;;;;;6.40;5.90;;;19.50;99.90;;;;;;5032443;28;20290;-77
2022/08/10 06:03:57;;;;;;;6.10;5.70;;;19.50;99.90;;;;;;5032109;28;20581;-77
2022/08/10 06:06:27;;;;;;;6.93;6.40;;;19.40;99.90;;;;;;5033561;28;20207;-77
2022/08/10 06:08:56;;;;;;;6.60;6.10;;;19.40;99.90;;;;;;5049081;28;20205;-77
2022/08/10 06:11:26;;;;;;;4.93;2.97;;;19.40;99.90;;;;;;5041136;28;20771;-78
2022/08/10 06:16:42;;;;;;;4.07;3.07;;;19.40;99.90;;;;;;5045595;28;20197;-77
2022/08/10 06:19:11;;;;;;;4.70;3.23;;;19.50;99.90;;;;;;5031924;28;20291;-78
2022/08/10 06:21:38;;;;;;;3.30;3.00;;;19.50;99.90;;;;;;5033057;28;20226;-77
2022/08/10 06:24:09;;;;;;;3.80;3.27;;;19.60;99.90;;;;;;5048560;28;20215;-77
2022/08/10 06:26:38;;;;;;;3.20;2.77;;;19.60;99.90;;;;;;5033760;28;20220;-77
2022/08/10 06:29:09;;;;;;;3.47;2.70;;;19.70;99.90;;;;;;5032294;28;20276;-77
2022/08/10 06:31:39;;;;;;;4.53;3.90;;;19.90;99.90;;;;;;5031224;28;20390;-79
2022/08/10 06:34:08;;;;;;;6.60;6.20;;;20.00;99.90;;;;;;5031691;28;20664;-77
2022/08/10 06:36:37;;;;;;;6.77;6.27;;;20.20;99.90;;;;;;5033881;28;20298;-77
2022/08/10 06:39:05;;;;;;;3.37;3.07;;;20.30;99.90;;;;;;5048138;28;20715;-78
2022/08/10 06:41:35;;;;;;;4.33;2.37;;;20.40;99.90;;;;;;5048730;28;20715;-78
2022/08/10 06:44:09;;;;;;;4.17;2.50;;;20.50;99.90;;;;;;5029298;28;20222;-77
2022/08/10 06:46:39;;;;;;;3.37;3.07;;;20.60;99.90;;;;;;5046612;28;20204;-77
2022/08/10 06:49:09;;;;;;;3.47;3.03;;;20.80;99.90;;;;;;5048167;28;20233;-77
2022/08/10 06:51:37;;;;;;;6.17;5.67;;;21.00;99.90;;;;;;5031992;28;20222;-77
2022/08/10 06:54:07;;;;;;;5.47;4.97;;;21.20;99.90;;;;;;5032710;28;20208;-77
2022/08/10 06:56:39;;;;;;;6.40;5.90;;;21.30;99.90;;;;;;5033378;28;20675;-78
2022/08/10 06:59:12;;;;;;;4.10;3.50;;;21.40;99.90;;;;;;5047645;28;20266;-77
2022/08/10 07:01:43;;;;;;;4.10;3.73;;;21.70;99.90;;;;;;5033250;28;20673;-77
2022/08/10 07:04:16;;;;;;;4.87;4.47;;;22.00;99.90;;;;;;5027313;28;20723;-77
2022/08/10 07:06:46;;;;;;;5.77;4.10;;;22.20;99.90;;;;;;5029533;28;20195;-77
2022/08/10 07:09:15;;;;;;;4.30;3.67;;;22.40;99.90;;;;;;5025088;28;20254;-77
2022/08/10 07:11:44;;;;;;;3.20;3.00;;;22.60;99.90;;;;;;5044481;28;20269;-77
2022/08/10 07:14:14;;;;;;;4.70;4.40;;;22.80;99.90;;;;;;5023077;28;20188;-77
2022/08/10 07:16:42;;;;;;;6.20;5.70;;;22.90;99.90;;;;;;5048539;28;20254;-77
2022/08/10 07:19:10;;;;;;;5.53;4.23;;;23.10;99.90;;;;;;5031716;28;20196;-78
2022/08/10 07:21:39;;;;;;;3.20;2.90;;;23.30;99.90;;;;;;5032851;28;20256;-77
2022/08/10 07:24:09;;;;;;;6.20;5.80;;;23.80;99.90;;;;;;5032553;28;20338;-77
2022/08/10 07:26:38;;;;;;;5.13;4.73;;;24.20;99.90;;;;;;5044912;28;20246;-78
2022/08/10 07:29:06;;;;;;;4.93;2.90;;;24.50;99.90;;;;;;5030531;28;20211;-77
2022/08/10 07:31:36;;;;;;;4.80;3.57;;;24.80;99.90;;;;;;5046456;28;20216;-78
2022/08/10 07:34:05;;;;;;;7.13;6.63;;;24.90;99.90;;;;;;5047327;28;20199;-77
2022/08/10 07:36:34;;;;;;;5.70;5.30;;;25.30;99.90;;;;;;5033939;28;20188;-78
2022/08/10 07:39:03;;;;;;;5.60;5.20;;;25.60;99.90;;;;;;5033517;28;20196;-77
2022/08/10 07:41:32;;;;;;;6.40;5.80;;;26.00;99.10;;;;;;5032890;28;20779;-78
2022/08/10 07:44:01;;;;;;;6.83;6.40;;;26.20;99.20;;;;;;5040151;28;20220;-78
2022/08/10 07:46:30;;;;;;;6.40;5.80;;;26.60;99.10;;;;;;5027729;28;20279;-78
2022/08/10 07:49:02;;;;;;;5.47;5.07;;;27.00;97.60;;;;;;5045674;28;20200;-78
2022/08/10 07:51:32;;;;;;;5.30;4.90;;;27.30;97.00;;;;;;5030949;28;20215;-78
2022/08/10 07:54:04;;;;;;;6.30;5.80;;;27.60;96.30;;;;;;5046712;28;20224;-79
2022/08/10 07:56:33;;;;;;;5.50;5.00;;;27.80;94.70;;;;;;5033448;28;20195;-79
2022/08/10 07:59:04;;;;;;;5.70;5.20;;;27.50;94.80;;;;;;5047353;28;20554;-76
2022/08/10 08:01:34;;;;;;;5.53;5.13;;;27.20;93.90;;;;;;5047792;28;20913;-77
2022/08/10 08:04:03;;;;;;;5.30;4.90;;;27.60;94.70;;;;;;5044166;28;20233;-78
2022/08/10 08:06:32;;;;;;;5.67;5.23;;;27.60;94.50;;;;;;5030321;28;20323;-78
2022/08/10 08:09:02;;;;;;;5.53;5.13;;;27.40;93.70;;;;;;5030982;28;20195;-78
2022/08/10 08:11:30;;;;;;;5.80;5.40;;;27.60;95.40;;;;;;5047189;28;20219;-79
2022/08/10 08:13:58;;;;;;;6.43;5.93;;;27.90;94.50;;;;;;5044425;28;20199;-78
2022/08/10 08:16:25;;;;;;;5.17;4.87;;;28.20;94.50;;;;;;5018647;28;20688;-78
2022/08/10 08:18:55;;;;;;;5.57;5.27;;;28.50;93.80;;;;;;5022525;28;20242;-78
2022/08/10 08:21:23;;;;;;;6.90;4.53;;;28.70;93.40;;;;;;5031470;28;20253;-79
2022/08/10 08:23:52;;;;;;;5.07;4.70;;;28.70;91.80;;;;;;5047404;28;20207;-79
2022/08/10 08:26:21;;;;;;;4.60;4.20;;;28.30;91.10;;;;;;5047783;28;20206;-78
2022/08/10 08:28:50;;;;;;;4.80;4.40;;;28.70;92.30;;;;;;5047824;28;20200;-79
2022/08/10 08:31:18;;;;;;;5.17;4.77;;;28.70;88.60;;;;;;5032471;28;20215;-78
2022/08/10 08:33:47;;;;;;;4.83;4.43;;;28.30;89.50;;;;;;5047351;28;20203;-78
2022/08/10 08:36:17;;;;;;;5.80;5.20;;;28.00;90.20;;;;;;5031217;28;20254;-79
2022/08/10 08:38:47;;;;;;;5.90;5.30;;;28.00;91.10;;;;;;5032060;28;20204;-78
2022/08/10 08:41:33;;;;;;;6.03;5.43;;;27.80;88.50;;;;;;5038523;28;20281;-78
2022/08/10 08:44:07;;;;;;;6.27;5.60;;;27.40;88.90;;;;;;5042100;28;20270;-78
2022/08/10 08:46:47;;;;;;;7.83;5.10;;;27.90;87.30;;;;;;5026380;28;20665;-78
2022/08/10 08:49:42;;;;;;;5.83;5.33;;;28.10;88.50;;;;;;5024005;28;20298;-78
2022/08/10 08:52:25;;;;;;;5.50;5.10;;;28.20;86.40;;;;;;5028945;28;20262;-78
2022/08/10 08:55:19;;;;;;;5.93;5.43;;;28.40;89.80;;;;;;5046804;28;20202;-79
2022/08/10 08:57:54;;;;;;;6.50;5.90;;;28.90;86.00;;;;;;5030390;28;20250;-78
2022/08/10 09:00:40;;;;;;;6.47;5.97;;;28.70;82.10;;;;;;5032309;28;20203;-78
2022/08/10 09:03:45;;;;;;;6.27;5.87;;;28.60;83.90;;;;;;5030154;28;20215;-78
2022/08/10 09:06:34;;;;;;;4.57;4.27;;;29.20;85.20;;;;;;5017431;28;20269;-78
2022/08/10 09:09:27;;;;;;;3.60;3.30;;;28.90;80.00;;;;;;5041469;28;20330;-78
2022/08/10 09:12:05;;;;;;;5.37;4.90;;;28.20;82.30;;;;;;5031399;28;20219;-77
2022/08/10 09:14:38;;;;;;;3.27;3.03;;;28.10;80.60;;;;;;5031131;28;20192;-78
2022/08/10 09:17:15;;;;;;;3.47;3.17;;;28.00;80.20;;;;;;5031426;28;20196;-78
2022/08/10 09:19:49;;;;;;;5.83;5.23;;;28.00;81.30;;;;;;5031462;28;20206;-77
2022/08/10 09:22:23;;;;;;;4.73;4.43;;;28.30;81.30;;;;;;5025570;28;20219;-78
2022/08/10 09:24:57;;;;;;;5.30;4.90;;;28.60;84.80;;;;;;5040896;28;20566;-78
2022/08/10 09:27:32;;;;;;;2.00;1.80;;;28.90;82.50;;;;;;5046474;28;20200;-77
2022/08/10 09:30:04;;;;;;;5.17;4.80;;;29.50;82.00;;;;;;5025317;28;20603;-77
2022/08/10 09:32:41;;;;;;;4.90;4.60;;;29.10;81.80;;;;;;5031091;28;20211;-79
2022/08/10 09:35:16;;;;;;;4.47;4.07;;;29.50;81.60;;;;;;5047026;28;20203;-77
2022/08/10 09:37:50;;;;;;;6.10;4.17;;;29.80;77.00;;;;;;5050170;28;20259;-78
2022/08/10 09:40:24;;;;;;;5.20;3.97;;;29.50;81.60;;;;;;5032868;28;20749;-77
2022/08/10 09:43:00;;;;;;;3.47;2.90;;;29.70;78.90;;;;;;5034700;28;20199;-77
2022/08/10 09:45:35;;;;;;;3.97;3.57;;;30.00;78.40;;;;;;5034306;28;20246;-77
2022/08/10 09:48:11;;;;;;;5.00;4.60;;;30.40;77.10;;;;;;5050093;28;20636;-77
2022/08/10 09:50:51;;;;;;;5.60;5.20;;;29.90;77.20;;;;;;5049701;28;20223;-78
2022/08/10 09:53:30;;;;;;;5.27;4.87;;;29.60;76.30;;;;;;5028346;28;20242;-77
2022/08/10 09:56:13;;;;;;;5.43;5.03;;;29.60;76.90;;;;;;5026282;28;20735;-77
2022/08/10 09:58:47;;;;;;;5.70;4.70;;;29.30;75.10;;;;;;5029361;28;20200;-79
2022/08/10 10:01:20;;;;;;;5.87;5.30;;;29.10;76.60;;;;;;5043264;28;20275;-77
2022/08/10 10:03:54;;;;;;;5.77;5.30;;;29.20;75.00;;;;;;5031133;28;20578;-78
2022/08/10 10:06:28;;;;;;;5.80;5.33;;;29.20;73.60;;;;;;5034280;28;20318;-78
2022/08/10 10:09:02;;;;;;;5.97;5.00;;;29.30;76.50;;;;;;5030175;28;20625;-77
2022/08/10 10:11:38;;;;;;;5.03;4.63;;;29.00;78.40;;;;;;5045955;28;20220;-77
2022/08/10 10:14:15;;;;;;;5.50;5.10;;;28.90;75.20;;;;;;5046862;28;20686;-78
2022/08/10 10:17:02;;;;;;;4.60;4.30;;;29.10;75.90;;;;;;5032838;28;20282;-78
2022/08/10 10:19:50;;;;;;;5.20;4.80;;;28.50;77.60;;;;;;5026369;28;20232;-77
2022/08/10 10:22:32;;;;;;;4.13;3.43;;;28.20;76.30;;;;;;5037459;28;20236;-77
2022/08/10 10:25:03;;;;;;;3.40;3.10;;;28.30;79.20;;;;;;5029490;28;20696;-79
2022/08/10 10:27:39;;;;;;;2.20;2.00;;;28.20;77.50;;;;;;5031145;28;20196;-78
2022/08/10 10:30:10;;;;;;;4.90;4.60;;;28.30;79.00;;;;;;5046855;28;20196;-77
2022/08/10 10:32:47;;;;;;;3.97;3.67;;;28.60;78.60;;;;;;5033976;28;20220;-79
2022/08/10 10:35:23;;;;;;;4.90;4.60;;;28.50;78.40;;;;;;5037597;28;20199;-78
2022/08/10 10:37:53;;;;;;;6.03;4.80;;;28.30;76.90;;;;;;5014489;28;20713;-78
2022/08/10 10:40:23;;;;;;;4.87;1.90;;;28.10;77.40;;;;;;5013823;28;20247;-78
2022/08/10 10:42:59;;;;;;;5.10;4.80;;;27.80;77.80;;;;;;5028541;28;20543;-78
2022/08/10 10:45:36;;;;;;;4.87;4.50;;;28.10;77.70;;;;;;5013856;28;20551;-78
2022/08/10 10:48:12;;;;;;;4.83;4.53;;;28.30;75.60;;;;;;5028353;28;20870;-79
2022/08/10 10:50:47;;;;;;;4.97;4.60;;;27.90;75.00;;;;;;5014194;28;20216;-78
2022/08/10 10:53:22;;;;;;;6.47;4.80;;;27.70;76.90;;;;;;5024970;28;20195;-78
2022/08/10 10:55:54;;;;;;;7.13;4.80;;;27.60;76.00;;;;;;5033521;28;20675;-79
2022/08/10 10:58:27;;;;;;;4.90;4.60;;;27.60;76.50;;;;;;5049019;28;20196;-78
2022/08/10 11:01:03;;;;;;;5.47;5.00;;;27.70;76.30;;;;;;5033852;28;20716;-79
2022/08/10 11:03:52;;;;;;;4.87;4.50;;;27.60;75.70;;;;;;5027100;28;20712;-80
2022/08/10 11:06:27;;;;;;;4.70;4.30;;;27.70;76.30;;;;;;5024367;28;20204;-78
2022/08/10 11:09:00;;;;;;;5.60;5.10;;;27.70;74.80;;;;;;5023710;28;20242;-79
2022/08/10 11:11:31;;;;;;;5.43;5.03;;;27.30;74.20;;;;;;5048726;28;20242;-78
2022/08/10 11:14:11;;;;;;;3.43;2.77;;;27.40;76.80;;;;;;5031084;28;20200;-80
2022/08/10 11:16:46;;;;;;;2.40;2.20;;;27.20;75.50;;;;;;5033101;28;20192;-78
2022/08/10 11:19:18;;;;;;;2.37;2.23;;;27.20;77.50;;;;;;5030501;28;20250;-79
2022/08/10 11:22:05;;;;;;;5.37;4.97;;;27.20;76.20;;;;;;5030727;28;20273;-78
2022/08/10 11:24:41;;;;;;;5.50;5.10;;;27.10;76.70;;;;;;5031735;28;20208;-78
2022/08/10 11:27:15;;;;;;;4.90;4.50;;;27.20;76.60;;;;;;5032249;28;20200;-79
2022/08/10 11:29:51;;;;;;;5.67;4.77;;;27.30;76.70;;;;;;5048243;28;20660;-80
2022/08/10 11:32:25;;;;;;;4.90;4.60;;;27.50;78.20;;;;;;5026268;28;20265;-78
2022/08/10 11:35:00;;;;;;;4.53;4.23;;;27.30;76.90;;;;;;5029742;28;20195;-80
2022/08/10 11:37:36;;;;;;;1.80;1.70;;;27.20;76.60;;;;;;5031034;28;20195;-78
2022/08/10 11:40:12;;;;;;;2.87;1.90;;;27.10;75.00;;;;;;5046726;28;20663;-79
2022/08/10 11:42:42;;;;;;;2.60;2.40;;;27.00;76.60;;;;;;5023808;22;1031881;-77
2022/08/10 11:45:15;;;;;;;3.13;2.73;;;27.10;75.20;;;;;;5038440;28;20525;-79
2022/08/10 11:47:47;;;;;;;4.80;4.50;;;27.00;76.90;;;;;;5040312;28;20267;-78
2022/08/10 11:50:21;;;;;;;5.43;4.80;;;27.10;76.50;;;;;;5033818;28;20192;-77
2022/08/10 11:52:55;;;;;;;4.77;4.47;;;27.20;76.70;;;;;;5018740;28;20269;-79
2022/08/10 11:55:24;;;;;;;4.80;4.40;;;27.20;75.50;;;;;;5019701;28;20251;-78
2022/08/10 11:57:55;;;;;;;5.93;4.50;;;27.30;75.70;;;;;;5013215;28;20250;-78
2022/08/10 12:00:21;;;;;;;6.23;4.80;;;27.30;76.80;;;;;;5024109;28;20195;-78
2022/08/10 12:02:53;;;;;;;5.00;4.50;;;27.30;76.10;;;;;;5013030;28;20724;-78
2022/08/10 12:05:25;;;;;;;4.03;3.73;;;27.20;74.70;;;;;;5023627;28;20255;-78
2022/08/10 12:07:56;;;;;;;4.23;3.83;;;27.10;75.80;;;;;;5024200;28;20196;-78
2022/08/10 12:10:24;;;;;;;4.30;3.90;;;27.10;75.50;;;;;;5021324;28;20200;-78
2022/08/10 12:12:58;;;;;;;4.60;4.30;;;27.00;73.90;;;;;;5017729;28;20530;-78
2022/08/10 12:15:32;;;;;;;4.90;4.50;;;27.10;75.60;;;;;;5025184;28;20613;-78
2022/08/10 12:18:06;;;;;;;5.00;4.40;;;27.20;75.90;;;;;;5020182;28;20258;-79
2022/08/10 12:20:37;;;;;;;4.93;4.53;;;27.20;75.60;;;;;;5021864;28;20193;-77
2022/08/10 12:23:15;;;;;;;4.90;4.40;;;27.10;74.60;;;;;;5024605;28;20219;-78
2022/08/10 12:25:49;;;;;;;4.93;4.53;;;27.10;75.20;;;;;;5022052;28;20266;-78
2022/08/10 12:28:23;;;;;;;4.70;4.40;;;27.10;75.60;;;;;;5014607;28;20191;-78
2022/08/10 12:30:55;;;;;;;5.07;4.57;;;27.20;74.80;;;;;;5023619;28;20192;-77
2022/08/10 12:33:28;;;;;;;4.40;4.20;;;27.30;74.80;;;;;;5012707;28;20284;-78
2022/08/10 12:36:03;;;;;;;6.50;4.57;;;27.30;75.70;;;;;;5021022;28;20185;-81
2022/08/10 12:38:36;;;;;;;5.70;4.53;;;27.20;74.70;;;;;;5019723;28;20616;-78
2022/08/10 12:41:09;;;;;;;5.93;4.60;;;27.20;75.30;;;;;;5022597;28;20220;-76
2022/08/10 12:43:43;;;;;;;4.73;4.47;;;27.30;76.20;;;;;;5020413;28;20893;-78
2022/08/10 12:46:15;;;;;;;6.67;4.63;;;27.30;75.90;;;;;;5019626;28;20220;-77
2022/08/10 12:48:52;;;;;;;5.63;4.40;;;27.30;75.70;;;;;;5012577;28;20665;-78
2022/08/10 12:51:22;;;;;;;4.70;4.30;;;27.20;75.60;;;;;;5017535;28;20265;-79
2022/08/10 12:53:55;;;;;;;5.03;4.63;;;27.20;76.10;;;;;;5015103;28;20196;-78
2022/08/10 12:56:27;;;;;;;5.20;4.80;;;27.20;75.50;;;;;;5024042;28;20433;-77
2022/08/10 12:58:55;;;;;;;7.80;4.97;;;27.20;76.00;;;;;;5023546;28;20246;-77
2022/08/10 13:01:26;;;;;;;4.63;4.33;;;27.20;75.60;;;;;;5022174;28;20255;-78
2022/08/10 13:03:59;;;;;;;4.83;4.53;;;27.20;75.60;;;;;;5023617;28;20254;-77
2022/08/10 13:07:19;;;;;;;;;;;;;;;;;;;;;
2022/08/10 13:09:49;;;;;;;6.37;4.50;;;27.30;77.10;;;;;;5023943;28;20188;-78
2022/08/10 13:12:18;;;;;;;5.17;4.77;;;27.20;75.70;;;;;;5023808;28;20212;-78
2022/08/10 13:14:50;;;;;;;5.23;4.83;;;27.20;77.10;;;;;;5022159;28;20216;-78
2022/08/10 13:17:23;;;;;;;6.20;5.20;;;27.30;76.70;;;;;;5016486;28;20204;-78